createdAt,value
2022-11-03T00:00:49.904Z,10.7
2022-11-03T00:02:50.413Z,13.1
2022-11-03T00:04:49.698Z,13.1
2022-11-03T00:06:50.426Z,10.9
2022-11-03T00:08:49.812Z,13.8
2022-11-03T00:10:50.197Z,10.2
2022-11-03T00:12:49.732Z,8.9
2022-11-03T00:14:50.078Z,10.4
2022-11-03T00:16:49.985Z,12.7
2022-11-03T00:18:50.421Z,12.7
2022-11-03T00:20:49.970Z,10.9
2022-11-03T00:22:50.414Z,11.7
2022-11-03T00:24:49.885Z,13.4
2022-11-03T00:26:49.565Z,13.4
2022-11-03T00:28:50.051Z,9.3
2022-11-03T00:30:50.393Z,7.9
2022-11-03T00:32:49.820Z,11.2
2022-11-03T00:34:49.824Z,8.7
2022-11-03T00:36:49.606Z,8.7
2022-11-03T00:38:50.090Z,9.0
2022-11-03T00:40:50.521Z,8.4
2022-11-03T00:42:49.928Z,9.8
2022-11-03T00:44:50.434Z,9.8
2022-11-03T00:46:50.251Z,9.2
2022-11-03T00:48:49.765Z,10.0
2022-11-03T00:50:50.103Z,9.2
2022-11-03T00:52:49.545Z,9.1
2022-11-03T00:54:52.719Z,7.7
2022-11-03T00:56:50.238Z,7.7
2022-11-03T00:58:49.602Z,12.5
2022-11-03T01:00:50.088Z,10.9
2022-11-03T01:02:49.810Z,8.5
2022-11-03T01:04:50.525Z,8.5
2022-11-03T01:06:50.544Z,10.2
2022-11-03T01:08:50.369Z,8.7
2022-11-03T01:10:49.828Z,10.2
2022-11-03T01:12:50.191Z,12.2
2022-11-03T01:14:49.623Z,12.2
2022-11-03T01:16:50.486Z,12.1
2022-11-03T01:18:49.926Z,15.4
2022-11-03T01:20:50.475Z,11.1
2022-11-03T01:22:49.937Z,11.9
2022-11-03T01:24:50.437Z,11.9
2022-11-03T01:26:50.285Z,10.2
2022-11-03T01:28:49.679Z,10.0
2022-11-03T01:30:50.249Z,10.8
2022-11-03T01:32:49.628Z,10.8
2022-11-03T01:34:50.491Z,8.2
2022-11-03T01:36:50.351Z,10.5
2022-11-03T01:38:49.817Z,12.5
2022-11-03T01:40:50.196Z,12.5
2022-11-03T01:42:49.745Z,11.7
2022-11-03T01:44:50.148Z,10.7
2022-11-03T01:46:49.862Z,11.1
2022-11-03T01:48:50.304Z,10.3
2022-11-03T01:50:49.821Z,10.3
2022-11-03T01:52:50.273Z,10.1
2022-11-03T01:54:49.822Z,10.5
2022-11-03T01:56:49.607Z,8.9
2022-11-03T01:58:50.158Z,7.5
2022-11-03T02:00:49.591Z,7.5
2022-11-03T02:02:50.341Z,9.6
2022-11-03T02:04:50.409Z,8.8
2022-11-03T02:06:50.310Z,9.2
2022-11-03T02:08:49.741Z,9.6
2022-11-03T02:10:50.181Z,9.6
2022-11-03T02:12:49.679Z,11.5
2022-11-03T02:14:50.053Z,8.5
2022-11-03T02:16:49.966Z,9.7
2022-11-03T02:18:50.415Z,9.3
2022-11-03T02:20:50.034Z,9.3
2022-11-03T02:22:50.512Z,13.0
2022-11-03T02:24:52.895Z,8.6
2022-11-03T02:26:50.151Z,9.6
2022-11-03T02:28:49.736Z,9.6
2022-11-03T02:30:50.491Z,10.0
2022-11-03T02:32:49.947Z,9.9
2022-11-03T02:34:49.924Z,10.7
2022-11-03T02:36:49.720Z,9.4
2022-11-03T02:38:50.133Z,7.8
2022-11-03T02:40:50.506Z,11.1
2022-11-03T02:42:49.967Z,11.1
2022-11-03T02:44:50.454Z,9.4
2022-11-03T02:46:50.286Z,12.2
2022-11-03T02:48:49.775Z,9.4
2022-11-03T02:50:50.282Z,9.4
2022-11-03T02:52:49.912Z,9.0
2022-11-03T02:54:50.508Z,9.6
2022-11-03T02:56:50.320Z,9.2
2022-11-03T02:58:49.891Z,10.4
2022-11-03T03:00:50.338Z,10.4
2022-11-03T03:02:50.194Z,10.4
2022-11-03T03:04:49.920Z,8.6
2022-11-03T03:06:49.803Z,10.9
2022-11-03T03:08:50.013Z,10.9
2022-11-03T03:10:49.690Z,11.5
2022-11-03T03:12:50.240Z,12.0
2022-11-03T03:14:49.756Z,10.3
2022-11-03T03:16:50.413Z,9.5
2022-11-03T03:18:49.848Z,9.5
2022-11-03T03:20:50.242Z,10.0
2022-11-03T03:22:50.479Z,8.9
2022-11-03T03:24:49.865Z,10.9
2022-11-03T03:26:49.614Z,7.9
2022-11-03T03:28:49.978Z,8.4
2022-11-03T03:30:50.408Z,8.4
2022-11-03T03:32:49.873Z,8.8
2022-11-03T03:34:49.897Z,8.8
2022-11-03T03:36:49.649Z,9.4
2022-11-03T03:38:50.104Z,9.4
2022-11-03T03:40:49.636Z,10.2
2022-11-03T03:42:50.038Z,10.6
2022-11-03T03:44:50.486Z,9.6
2022-11-03T03:46:50.257Z,9.4
2022-11-03T03:48:49.881Z,9.4
2022-11-03T03:50:50.297Z,8.6
2022-11-03T03:52:49.820Z,7.7
2022-11-03T03:54:50.289Z,8.8
2022-11-03T03:56:50.220Z,9.8
2022-11-03T03:58:49.843Z,9.8
2022-11-03T04:00:50.262Z,13.4
2022-11-03T04:02:50.038Z,10.3
2022-11-03T04:04:50.042Z,10.6
2022-11-03T04:06:49.975Z,10.6
2022-11-03T04:08:50.439Z,9.5
2022-11-03T04:10:49.951Z,8.3
2022-11-03T04:12:50.388Z,10.6
2022-11-03T04:14:49.883Z,10.6
2022-11-03T04:16:49.543Z,11.1
2022-11-03T04:18:50.029Z,10.3
2022-11-03T04:20:50.359Z,7.9
2022-11-03T04:22:49.655Z,9.4
2022-11-03T04:24:50.055Z,9.4
2022-11-03T04:26:49.923Z,9.3
2022-11-03T04:28:50.387Z,9.3
2022-11-03T04:30:52.157Z,11.1
2022-11-03T04:32:49.655Z,11.1
2022-11-03T04:34:50.443Z,10.9
2022-11-03T04:36:50.180Z,10.9
2022-11-03T04:38:49.573Z,10.2
2022-11-03T04:40:52.002Z,9.8
2022-11-03T04:42:50.063Z,11.0
2022-11-03T04:44:49.679Z,11.5
2022-11-03T04:46:50.410Z,11.5
2022-11-03T04:48:49.812Z,11.4
2022-11-03T04:50:50.314Z,7.7
2022-11-03T04:52:49.751Z,7.7
2022-11-03T04:54:50.245Z,11.7
2022-11-03T04:56:50.163Z,11.7
2022-11-03T04:58:49.681Z,9.6
2022-11-03T05:00:50.186Z,7.6
2022-11-03T05:02:51.494Z,8.9
2022-11-03T05:04:49.669Z,8.9
2022-11-03T05:06:50.563Z,10.9
2022-11-03T05:08:50.050Z,9.8
2022-11-03T05:10:50.451Z,11.7
2022-11-03T05:12:49.755Z,11.7
2022-11-03T05:14:52.909Z,8.3
2022-11-03T05:16:49.813Z,11.1
2022-11-03T05:18:50.142Z,12.3
2022-11-03T05:20:50.028Z,12.3
2022-11-03T05:22:50.408Z,12.3
2022-11-03T05:24:49.877Z,11.1
2022-11-03T05:26:49.568Z,9.9
2022-11-03T05:28:50.007Z,10.5
2022-11-03T05:30:50.451Z,10.5
2022-11-03T05:32:49.757Z,13.4
2022-11-03T05:34:49.737Z,13.4
2022-11-03T05:36:49.581Z,8.8
2022-11-03T05:38:50.232Z,12.8
2022-11-03T05:40:49.647Z,12.8
2022-11-03T05:42:50.142Z,12.1
2022-11-03T05:44:50.521Z,12.1
2022-11-03T05:46:50.325Z,9.6
2022-11-03T05:48:49.686Z,11.2
2022-11-03T05:50:50.208Z,11.2
2022-11-03T05:52:49.583Z,10.4
2022-11-03T05:54:50.006Z,11.1
2022-11-03T05:56:49.717Z,13.2
2022-11-03T05:58:50.107Z,9.5
2022-11-03T06:00:49.617Z,9.5
2022-11-03T06:02:50.069Z,11.9
2022-11-03T06:04:50.329Z,10.9
2022-11-03T06:06:49.931Z,10.0
2022-11-03T06:08:49.578Z,13.8
2022-11-03T06:10:50.047Z,13.8
2022-11-03T06:12:50.531Z,13.8
2022-11-03T06:14:49.948Z,15.0
2022-11-03T06:16:49.779Z,18.5
2022-11-03T06:18:50.246Z,34.3
2022-11-03T06:20:49.728Z,34.3
2022-11-03T06:22:50.286Z,20.1
2022-11-03T06:24:49.709Z,17.9
2022-11-03T06:26:49.543Z,18.3
2022-11-03T06:28:50.011Z,18.3
2022-11-03T06:30:50.060Z,17.2
2022-11-03T06:32:49.693Z,17.2
2022-11-03T06:34:50.534Z,16.4
2022-11-03T06:36:50.361Z,20.7
2022-11-03T06:38:49.925Z,31.4
2022-11-03T06:40:50.401Z,31.0
2022-11-03T06:42:49.967Z,31.0
2022-11-03T06:44:50.523Z,21.2
2022-11-03T06:46:50.339Z,19.9
2022-11-03T06:48:49.807Z,17.6
2022-11-03T06:50:50.363Z,17.6
2022-11-03T06:52:49.831Z,15.7
2022-11-03T06:54:49.691Z,22.2
2022-11-03T06:56:50.496Z,17.9
2022-11-03T06:58:50.062Z,14.9
2022-11-03T07:00:51.449Z,14.9
2022-11-03T07:02:49.873Z,23.8
2022-11-03T07:04:49.893Z,22.0
2022-11-03T07:06:53.147Z,24.5
2022-11-03T07:08:50.338Z,22.0
2022-11-03T07:10:49.848Z,22.0
2022-11-03T07:12:50.299Z,20.8
2022-11-03T07:14:49.846Z,23.6
2022-11-03T07:16:49.768Z,23.1
2022-11-03T07:18:50.364Z,23.1
2022-11-03T07:20:49.867Z,20.8
2022-11-03T07:22:50.371Z,17.2
2022-11-03T07:24:49.854Z,30.0
2022-11-03T07:26:49.757Z,30.0
2022-11-03T07:28:50.238Z,20.1
2022-11-03T07:30:49.766Z,23.1
2022-11-03T07:32:50.284Z,21.3
2022-11-03T07:34:50.196Z,17.9
2022-11-03T07:36:55.286Z,17.9
2022-11-03T07:38:50.124Z,24.0
2022-11-03T07:40:50.508Z,20.5
2022-11-03T07:42:50.088Z,21.4
2022-11-03T07:44:50.543Z,244.7
2022-11-03T07:46:50.279Z,127.6
2022-11-03T07:48:49.671Z,127.6
2022-11-03T07:50:50.189Z,29.5
2022-11-03T07:52:49.667Z,48.0
2022-11-03T07:54:50.236Z,48.0
2022-11-03T07:56:50.062Z,21.5
2022-11-03T07:58:49.710Z,21.5
2022-11-03T08:00:50.205Z,15.2
2022-11-03T08:02:49.874Z,14.1
2022-11-03T08:04:50.228Z,14.1
2022-11-03T08:06:50.114Z,10.8
2022-11-03T08:08:50.485Z,10.8
2022-11-03T08:10:49.837Z,11.2
2022-11-03T08:12:50.226Z,62.5
2022-11-03T08:14:49.834Z,62.5
2022-11-03T08:16:49.583Z,35.8
2022-11-03T08:18:50.077Z,35.8
2022-11-03T08:20:50.519Z,19.5
2022-11-03T08:23:05.346Z,7.2
2022-11-03T08:24:50.387Z,15.0
2022-11-03T08:26:50.106Z,15.0
2022-11-03T08:28:49.662Z,9.8
2022-11-03T08:30:50.051Z,15.6
2022-11-03T08:32:50.537Z,11.5
2022-11-03T08:34:49.670Z,7.3
2022-11-03T08:36:50.455Z,7.3
2022-11-03T08:38:49.992Z,5.8
2022-11-03T08:40:52.729Z,13.3
2022-11-03T08:42:49.881Z,5.8
2022-11-03T08:44:50.403Z,5.8
2022-11-03T08:46:50.119Z,4.1
2022-11-03T08:48:49.567Z,14.9
2022-11-03T08:50:50.003Z,13.8
2022-11-03T08:52:50.447Z,11.3
2022-11-03T08:54:50.039Z,11.3
2022-11-03T08:56:50.197Z,11.4
2022-11-03T08:58:49.662Z,9.3
2022-11-03T09:00:50.177Z,8.7
2022-11-03T09:02:49.657Z,8.7
2022-11-03T09:04:49.625Z,10.1
2022-11-03T09:06:50.428Z,10.1
2022-11-03T09:10:50.009Z,5.2
2022-11-03T09:12:50.518Z,5.6
2022-11-03T09:14:50.112Z,5.6
2022-11-03T09:16:50.340Z,5.2
2022-11-03T09:18:50.227Z,4.4
2022-11-03T09:20:49.850Z,4.7
2022-11-03T09:22:50.405Z,11.5
2022-11-03T09:24:49.964Z,11.5
2022-11-03T09:26:49.899Z,37.2
2022-11-03T09:28:50.412Z,13.9
2022-11-03T09:30:49.859Z,13.9
2022-11-03T09:32:50.438Z,6.9
2022-11-03T09:34:49.661Z,7.1
2022-11-03T09:36:53.190Z,5.4
2022-11-03T09:38:49.989Z,5.9
2022-11-03T09:40:50.370Z,5.9
2022-11-03T09:42:49.899Z,8.0
2022-11-03T09:44:50.363Z,8.0
2022-11-03T09:46:53.839Z,5.2
2022-11-03T09:48:49.586Z,7.6
2022-11-03T09:50:50.169Z,8.5
2022-11-03T09:52:51.626Z,8.5
2022-11-03T09:54:50.507Z,6.4
2022-11-03T09:56:50.345Z,7.0
2022-11-03T09:58:52.982Z,6.4
2022-11-03T10:00:50.350Z,6.4
2022-11-03T10:02:50.082Z,13.9
2022-11-03T10:04:50.037Z,37.9
2022-11-03T10:06:49.865Z,8.8
2022-11-03T10:08:50.410Z,6.7
2022-11-03T10:10:49.962Z,6.7
2022-11-03T10:12:50.519Z,7.3
2022-11-03T10:14:49.971Z,52.4
2022-11-03T10:16:53.199Z,6.2
2022-11-03T10:18:50.184Z,7.3
2022-11-03T10:20:49.747Z,7.3
2022-11-03T10:22:50.220Z,7.0
2022-11-03T10:24:49.763Z,7.3
2022-11-03T10:26:49.568Z,26.3
2022-11-03T10:28:50.134Z,7.9
2022-11-03T10:31:09.849Z,7.9
2022-11-03T10:32:50.436Z,8.0
2022-11-03T10:34:50.318Z,11.6
2022-11-03T10:36:50.744Z,5.3
2022-11-03T10:38:50.313Z,5.3
2022-11-03T10:40:49.934Z,8.2
2022-11-03T10:42:49.697Z,9.8
2022-11-03T10:44:50.191Z,5.1
2022-11-03T10:46:51.407Z,5.3
2022-11-03T10:48:50.485Z,7.3
2022-11-03T10:50:50.033Z,5.9
2022-11-03T10:52:50.586Z,5.9
2022-11-03T10:54:50.145Z,11.2
2022-11-03T10:56:50.047Z,11.2
2022-11-03T10:58:50.176Z,4.7
2022-11-03T11:00:49.802Z,4.7
2022-11-03T11:02:49.815Z,6.8
2022-11-03T11:04:49.854Z,4.5
2022-11-03T11:06:49.746Z,6.1
2022-11-03T11:08:50.172Z,4.5
2022-11-03T11:10:49.692Z,4.5
2022-11-03T11:12:50.198Z,7.3
2022-11-03T11:14:49.687Z,13.7
2022-11-03T11:16:50.441Z,13.7
2022-11-03T11:18:49.858Z,7.3
2022-11-03T11:20:50.385Z,7.3
2022-11-03T11:22:49.876Z,10.1
2022-11-03T11:24:50.398Z,6.2
2022-11-03T11:26:50.226Z,6.2
2022-11-03T11:28:49.725Z,6.7
2022-11-03T11:30:50.169Z,4.7
2022-11-03T11:32:49.672Z,8.8
2022-11-03T11:34:49.750Z,5.3
2022-11-03T11:36:49.559Z,7.2
2022-11-03T11:38:50.018Z,7.2
2022-11-03T11:40:49.620Z,7.2
2022-11-03T11:42:50.108Z,4.5
2022-11-03T11:44:49.621Z,6.1
2022-11-03T11:46:49.566Z,6.1
2022-11-03T11:48:50.012Z,7.1
2022-11-03T11:50:50.432Z,7.4
2022-11-03T11:52:49.986Z,5.4
2022-11-03T11:54:50.450Z,27.6
2022-11-03T11:56:50.267Z,27.6
2022-11-03T11:58:49.748Z,8.7
2022-11-03T12:00:50.120Z,4.8
2022-11-03T12:02:49.616Z,6.3
2022-11-03T12:04:50.458Z,6.3
2022-11-03T12:06:50.360Z,9.0
2022-11-03T12:08:49.913Z,9.0
2022-11-03T12:10:50.439Z,3.4
2022-11-03T12:12:50.055Z,11.4
2022-11-03T12:14:49.601Z,11.4
2022-11-03T12:16:50.347Z,5.6
2022-11-03T12:18:50.611Z,5.6
2022-11-03T12:20:50.402Z,5.4
2022-11-03T12:22:50.021Z,4.5
2022-11-03T12:24:50.529Z,5.8
2022-11-03T12:26:50.385Z,5.8
2022-11-03T12:28:49.891Z,15.8
2022-11-03T12:30:50.444Z,8.3
2022-11-03T12:32:50.352Z,7.8
2022-11-03T12:34:50.255Z,7.8
2022-11-03T12:36:54.871Z,4.3
2022-11-03T12:38:49.947Z,118.6
2022-11-03T12:40:50.373Z,17.1
2022-11-03T12:42:49.853Z,5.0
2022-11-03T12:44:50.191Z,5.0
2022-11-03T12:46:50.104Z,5.9
2022-11-03T12:48:50.519Z,4.1
2022-11-03T12:50:50.046Z,7.6
2022-11-03T12:52:49.548Z,7.6
2022-11-03T12:54:50.067Z,10.0
2022-11-03T12:56:49.868Z,10.0
2022-11-03T12:58:50.399Z,7.5
2022-11-03T13:00:52.053Z,9.0
2022-11-03T13:02:50.080Z,9.0
2022-11-03T13:04:49.924Z,8.9
2022-11-03T13:06:49.700Z,8.5
2022-11-03T13:08:52.175Z,5.8
2022-11-03T13:10:49.790Z,10.0
2022-11-03T13:12:50.226Z,10.0
2022-11-03T13:14:49.619Z,5.3
2022-11-03T13:16:50.551Z,6.7
2022-11-03T13:18:49.986Z,6.4
2022-11-03T13:20:50.474Z,6.4
2022-11-03T13:22:50.110Z,7.8
2022-11-03T13:24:49.630Z,7.8
2022-11-03T13:26:50.438Z,7.6
2022-11-03T13:28:49.942Z,6.9
2022-11-03T13:30:50.430Z,36.9
2022-11-03T13:32:50.147Z,58.6
2022-11-03T13:34:50.167Z,58.6
2022-11-03T13:36:50.116Z,32.7
2022-11-03T13:38:49.644Z,105.4
2022-11-03T13:40:56.458Z,105.4
2022-11-03T13:42:50.538Z,47.6
2022-11-03T13:44:50.148Z,47.6
2022-11-03T13:46:50.188Z,136.3
2022-11-03T13:50:50.576Z,38.5
2022-11-03T13:52:50.616Z,32.3
2022-11-03T14:00:50.312Z,57.3
2022-11-03T14:04:50.059Z,28.1
2022-11-03T14:06:49.862Z,74.3
2022-11-03T14:08:50.335Z,58.4
2022-11-03T14:10:49.715Z,31.3
2022-11-03T14:12:50.097Z,12.6
2022-11-03T14:14:49.564Z,12.6
2022-11-03T14:16:50.496Z,31.7
2022-11-03T14:18:49.811Z,31.7
2022-11-03T14:20:49.623Z,21.4
2022-11-03T14:22:50.886Z,21.4
2022-11-03T14:24:50.323Z,74.1
2022-11-03T14:26:49.560Z,20.3
2022-11-03T14:28:50.450Z,20.3
2022-11-03T14:30:49.894Z,69.9
2022-11-03T14:32:51.138Z,69.9
2022-11-03T14:34:50.062Z,45.0
2022-11-03T14:36:50.373Z,18.7
2022-11-03T14:38:50.240Z,18.7
2022-11-03T14:40:50.053Z,20.5
2022-11-03T14:42:50.428Z,20.5
2022-11-03T14:44:50.296Z,17.0
2022-11-03T14:46:50.323Z,40.3
2022-11-03T14:48:49.952Z,40.3
2022-11-03T14:50:50.334Z,36.0
2022-11-03T14:52:50.054Z,36.0
2022-11-03T14:54:49.603Z,49.5
2022-11-03T14:56:50.499Z,23.3
2022-11-03T14:58:50.439Z,54.1
2022-11-03T15:00:49.864Z,54.1
2022-11-03T15:02:49.718Z,148.2
2022-11-03T15:04:50.567Z,93.8
2022-11-03T15:06:50.214Z,76.7
2022-11-03T15:08:53.561Z,76.7
2022-11-03T15:10:50.462Z,43.4
2022-11-03T15:12:50.127Z,43.4
2022-11-03T15:14:49.978Z,26.3
2022-11-03T15:16:50.542Z,26.3
2022-11-03T15:18:49.963Z,40.1
2022-11-03T15:20:50.601Z,40.1
2022-11-03T15:25:18.095Z,12.2
2022-11-03T15:26:50.051Z,12.2
2022-11-03T15:28:50.464Z,17.2
2022-11-03T15:30:49.955Z,17.2
2022-11-03T15:32:50.369Z,13.7
2022-11-03T15:34:50.396Z,11.2
2022-11-03T15:36:50.436Z,18.3
2022-11-03T15:38:49.629Z,18.3
2022-11-03T15:40:50.134Z,19.2
2022-11-03T15:42:49.552Z,12.9
2022-11-03T15:44:50.030Z,8.0
2022-11-03T15:46:49.885Z,7.2
2022-11-03T15:48:50.385Z,7.2
2022-11-03T15:50:49.883Z,9.1
2022-11-03T15:52:50.442Z,11.0
2022-11-03T15:54:50.017Z,8.4
2022-11-03T15:56:49.816Z,8.4
2022-11-03T15:58:50.385Z,7.4
2022-11-03T16:00:49.853Z,9.0
2022-11-03T16:02:49.987Z,14.9
2022-11-03T16:04:49.793Z,8.1
2022-11-03T16:07:07.579Z,8.1
2022-11-03T16:08:49.664Z,10.7
2022-11-03T16:10:53.269Z,8.5
2022-11-03T16:12:49.768Z,10.6
2022-11-03T16:14:50.169Z,12.9
2022-11-03T16:16:50.157Z,12.9
2022-11-03T16:18:49.627Z,8.0
2022-11-03T16:20:50.104Z,14.6
2022-11-03T16:22:49.613Z,8.7
2022-11-03T16:24:50.540Z,8.9
2022-11-03T16:26:50.534Z,8.9
2022-11-03T16:28:50.044Z,15.0
2022-11-03T16:30:54.211Z,15.0
2022-11-03T16:32:50.251Z,8.6
2022-11-03T16:34:50.251Z,8.6
2022-11-03T16:36:49.947Z,8.6
2022-11-03T16:38:50.553Z,9.8
2022-11-03T16:40:49.955Z,12.0
2022-11-03T16:42:49.586Z,10.8
2022-11-03T16:44:50.072Z,10.8
2022-11-03T16:46:50.032Z,10.2
2022-11-03T16:48:50.532Z,9.0
2022-11-03T16:50:52.815Z,9.0
2022-11-03T16:52:50.241Z,9.8
2022-11-03T16:54:49.650Z,9.8
2022-11-03T16:56:53.548Z,16.5
2022-11-03T16:58:50.501Z,9.9
2022-11-03T17:00:49.909Z,9.9
2022-11-03T17:02:49.872Z,9.9
2022-11-03T17:04:49.849Z,9.9
2022-11-03T17:06:49.672Z,10.4
2022-11-03T17:08:53.119Z,13.4
2022-11-03T17:10:50.242Z,9.7
2022-11-03T17:12:49.864Z,10.2
2022-11-03T17:14:51.354Z,10.2
2022-11-03T17:16:49.651Z,11.5
2022-11-03T17:18:50.046Z,13.2
2022-11-03T17:20:50.484Z,10.9
2022-11-03T17:22:50.007Z,10.9
2022-11-03T17:24:50.473Z,12.1
2022-11-03T17:26:50.384Z,10.6
2022-11-03T17:28:49.952Z,10.8
2022-11-03T17:30:50.353Z,12.9
2022-11-03T17:32:49.845Z,12.9
2022-11-03T17:34:49.911Z,12.1
2022-11-03T17:36:49.919Z,14.1
2022-11-03T17:38:50.307Z,11.8
2022-11-03T17:40:49.929Z,11.8
2022-11-03T17:42:50.277Z,11.8
2022-11-03T17:44:49.903Z,11.8
2022-11-03T17:46:49.752Z,13.3
2022-11-03T17:48:50.237Z,12.2
2022-11-03T17:50:49.743Z,12.2
2022-11-03T17:52:50.345Z,11.8
2022-11-03T17:54:49.831Z,11.9
2022-11-03T17:56:49.584Z,14.7
2022-11-03T17:58:50.051Z,12.0
2022-11-03T18:00:50.558Z,12.0
2022-11-03T18:02:50.382Z,13.8
2022-11-03T18:04:50.248Z,18.8
2022-11-03T18:06:50.134Z,13.1
2022-11-03T18:08:49.741Z,17.8
2022-11-03T18:10:50.324Z,17.8
2022-11-03T18:12:49.911Z,17.3
2022-11-03T18:14:50.369Z,13.7
2022-11-03T18:16:50.283Z,13.7
2022-11-03T18:18:49.891Z,13.4
2022-11-03T18:20:53.290Z,15.1
2022-11-03T18:22:50.334Z,15.1
2022-11-03T18:24:49.855Z,13.3
2022-11-03T18:26:49.871Z,12.4
2022-11-03T18:28:50.537Z,13.7
2022-11-03T18:30:50.063Z,14.6
2022-11-03T18:32:49.626Z,14.6
2022-11-03T18:34:50.456Z,13.0
2022-11-03T18:36:50.262Z,13.0
2022-11-03T18:38:50.026Z,13.6
2022-11-03T18:40:50.497Z,14.5
2022-11-03T18:42:50.029Z,14.5
2022-11-03T18:44:50.540Z,14.5
2022-11-03T18:46:50.307Z,11.2
2022-11-03T18:48:49.766Z,11.2
2022-11-03T18:50:50.360Z,11.5
2022-11-03T18:52:49.817Z,12.1
2022-11-03T18:54:50.352Z,12.0
2022-11-03T18:56:50.238Z,12.0
2022-11-03T18:58:49.901Z,12.0
2022-11-03T19:00:49.623Z,10.9
2022-11-03T19:02:50.547Z,14.0
2022-11-03T19:04:49.588Z,13.9
2022-11-03T19:06:50.557Z,13.7
2022-11-03T19:08:50.135Z,13.7
2022-11-03T19:10:49.689Z,11.4
2022-11-03T19:12:50.202Z,13.4
2022-11-03T19:14:49.661Z,10.8
2022-11-03T19:17:16.980Z,11.2
2022-11-03T19:18:50.480Z,11.2
2022-11-03T19:20:50.136Z,10.8
2022-11-03T19:22:49.630Z,12.5
2022-11-03T19:24:50.292Z,11.5
2022-11-03T19:26:50.182Z,11.5
2022-11-03T19:28:49.694Z,11.0
2022-11-03T19:30:51.837Z,11.0
2022-11-03T19:32:50.516Z,12.5
2022-11-03T19:34:50.307Z,9.9
2022-11-03T19:36:50.261Z,9.9
2022-11-03T19:38:49.724Z,10.6
2022-11-03T19:40:50.144Z,10.6
2022-11-03T19:42:49.662Z,11.4
2022-11-03T19:44:50.035Z,13.7
2022-11-03T19:46:49.835Z,13.7
2022-11-03T19:48:50.230Z,11.4
2022-11-03T19:50:49.747Z,9.9
2022-11-03T19:52:50.181Z,11.4
2022-11-03T19:54:49.655Z,11.1
2022-11-03T19:56:50.398Z,11.1
2022-11-03T19:58:49.910Z,9.1
2022-11-03T20:00:50.465Z,9.2
2022-11-03T20:02:50.452Z,10.9
2022-11-03T20:04:50.528Z,10.7
2022-11-03T20:06:50.359Z,10.7
2022-11-03T20:08:49.907Z,10.7
2022-11-03T20:10:50.557Z,12.9
2022-11-03T20:12:49.991Z,12.2
2022-11-03T20:14:49.666Z,12.2
2022-11-03T20:16:50.475Z,9.7
2022-11-03T20:18:50.065Z,9.7
2022-11-03T20:20:49.566Z,9.2
2022-11-03T20:22:50.158Z,8.9
2022-11-03T20:24:49.634Z,8.9
2022-11-03T20:26:50.421Z,10.9
2022-11-03T20:28:49.957Z,11.2
2022-11-03T20:30:50.388Z,8.5
2022-11-03T20:32:49.893Z,10.4
2022-11-03T20:34:50.010Z,8.8
2022-11-03T20:36:49.893Z,8.8
2022-11-03T20:38:50.366Z,10.2
2022-11-03T20:40:49.933Z,12.4
2022-11-03T20:42:50.405Z,17.0
2022-11-03T20:44:49.864Z,17.0
2022-11-03T20:46:49.630Z,11.3
2022-11-03T20:48:50.114Z,11.9
2022-11-03T20:50:49.632Z,11.9
2022-11-03T20:52:50.052Z,10.1
2022-11-03T20:54:50.526Z,10.1
2022-11-03T20:56:50.457Z,8.9
2022-11-03T20:58:50.003Z,11.0
2022-11-03T21:00:50.595Z,10.2
2022-11-03T21:02:49.686Z,10.2
2022-11-03T21:04:49.863Z,9.2
2022-11-03T21:06:49.710Z,9.2
2022-11-03T21:08:50.064Z,9.2
2022-11-03T21:10:50.556Z,12.3
2022-11-03T21:12:49.949Z,9.9
2022-11-03T21:14:50.468Z,9.9
2022-11-03T21:16:50.113Z,9.4
2022-11-03T21:18:49.627Z,11.4
2022-11-03T21:20:50.236Z,10.7
2022-11-03T21:22:52.736Z,11.3
2022-11-03T21:24:50.229Z,11.3
2022-11-03T21:26:50.152Z,12.3
2022-11-03T21:28:49.728Z,12.9
2022-11-03T21:30:50.281Z,15.2
2022-11-03T21:32:49.772Z,15.2
2022-11-03T21:34:49.911Z,18.2
2022-11-03T21:36:49.822Z,13.8
2022-11-03T21:38:50.499Z,13.8
2022-11-03T21:40:53.770Z,19.1
2022-11-03T21:42:49.964Z,19.1
2022-11-03T21:44:50.511Z,16.7
2022-11-03T21:46:50.191Z,16.2
2022-11-03T21:48:49.724Z,18.5
2022-11-03T21:50:50.027Z,18.5
2022-11-03T21:52:49.564Z,18.7
2022-11-03T21:54:49.963Z,18.7
2022-11-03T21:56:49.742Z,20.1
2022-11-03T21:58:50.192Z,19.8
2022-11-03T22:00:49.723Z,19.8
2022-11-03T22:02:49.782Z,22.4
2022-11-03T22:04:49.686Z,22.6
2022-11-03T22:06:50.361Z,26.5
2022-11-03T22:08:49.841Z,22.4
2022-11-03T22:10:50.219Z,23.0
2022-11-03T22:12:49.619Z,23.0
2022-11-03T22:14:50.096Z,22.1
2022-11-03T22:16:49.972Z,30.4
2022-11-03T22:18:49.954Z,27.1
2022-11-03T22:20:50.461Z,27.1
2022-11-03T22:22:49.983Z,26.6
2022-11-03T22:24:50.354Z,26.2
2022-11-03T22:26:50.097Z,22.1
2022-11-03T22:28:50.574Z,19.6
2022-11-03T22:30:50.054Z,22.6
2022-11-03T22:32:50.493Z,22.6
2022-11-03T22:34:50.333Z,21.2
2022-11-03T22:36:50.162Z,20.2
2022-11-03T22:38:49.803Z,20.2
2022-11-03T22:40:50.190Z,18.5
2022-11-03T22:42:49.819Z,18.5
2022-11-03T22:44:50.256Z,18.9
2022-11-03T22:46:50.029Z,18.9
2022-11-03T22:48:50.523Z,17.6
2022-11-03T22:50:50.048Z,17.6
2022-11-03T22:52:50.474Z,17.7
2022-11-03T22:54:50.209Z,19.7
2022-11-03T22:56:49.969Z,18.9
2022-11-03T22:58:49.611Z,19.8
2022-11-03T23:00:50.149Z,19.8
2022-11-03T23:02:49.980Z,19.4
2022-11-03T23:04:50.207Z,19.4
2022-11-03T23:06:50.060Z,19.7
2022-11-03T23:08:50.472Z,20.1
2022-11-03T23:10:49.866Z,20.1
2022-11-03T23:12:50.328Z,18.3
2022-11-03T23:14:49.705Z,20.1
2022-11-03T23:16:50.516Z,18.3
2022-11-03T23:18:49.951Z,20.0
2022-11-03T23:20:50.547Z,20.0
2022-11-03T23:22:49.996Z,19.7
2022-11-03T23:24:50.559Z,19.5
2022-11-03T23:26:50.452Z,18.3
2022-11-03T23:28:49.975Z,18.7
2022-11-03T23:30:50.500Z,18.7
2022-11-03T23:32:50.026Z,18.7
2022-11-03T23:34:49.992Z,21.2
2022-11-03T23:36:49.806Z,21.2
2022-11-03T23:38:50.154Z,18.2
2022-11-03T23:40:49.639Z,18.2
2022-11-03T23:42:50.056Z,17.2
2022-11-03T23:44:50.508Z,16.1
2022-11-03T23:46:50.208Z,18.6
2022-11-03T23:48:49.682Z,18.6
2022-11-03T23:50:50.165Z,16.3
2022-11-03T23:52:49.694Z,17.4
2022-11-03T23:54:50.173Z,16.6
2022-11-03T23:56:50.033Z,16.8
2022-11-03T23:58:50.518Z,16.8
